KDLH

Duluth International Airport

Duluth, Minnesota, USA
METAR KDLH 171755Z 32016G25KT 10SM FEW035 04/M10 A3032 RMK AO2 SLP285 T00391100 10039 20006 51026
Observed Flight Rules
Oct-17 @ 17:55 UTC (46 minutes ago) Visual Flight Rules
Wind Visibility Clouds
320° at 16 knots
 Gusting to 25 knots
10 miles
  • Few at 3,500' AGL
Temperatures Readings
Current 4°C / 39°F
Dewpoint -10°C / 14°F
Humidity 36%
Altimeter 30.32" Hg
Pressure 1028.5 hPa
Elevation 435
METAR KDLH 171755Z 32016G25KT 10SM FEW035 04/M10 A3032 RMK AO2 SLP285 T00391100 10039 20006 51026
Observed Flight Rules
Oct-17 @ 17:55 UTC
(46 minutes ago)
VFR
Wind Visibility
320° at 16 knots
 Gusting to 25 knots
10 miles
Clouds
  • Few at 3,500' AGL
Temperature Dewpoint
4°C / 39°F -10°C / 14°F
Humidity Altimeter Pressure
36% 30.32" Hg 1028.5 hPa